• Join FlightAware (Why Join?)
  • Login
  • US Flag 
03:40PM EDT


 

Airport Tracker/Info


-or-


 

Live Flight TrackerFlight Track Log ✈ AWI4083 ✈ 03-May-2013 ✈ KDCA - KCHS

Flight Track Log - Related Links

Times and Time Zones

All times are in EDT time to prevent confusion due to time zone crossing. See the AWI4083 flight status page for this flight to view local times or setup timezone preferences in your user account.

Time Position Orientation Groundspeed Altitude Reporting Facility
EDT Latitude Longitude Course Direction KTS MPH feet Rate Location/Type
11:52AM 38.8833 -77.0833 180° South 199 229 2,300  Level Potomac TRACON
11:53AM 38.9333 -77.1333 322° Northwest 225 259 5,300 2,520 Climbing Potomac TRACON
11:54AM 38.6321 -76.8094 134° Southeast  Level FlightAware Approximate
11:54AM 38.9833 -77.1333 360° North 236 272 7,400  Level Potomac TRACON
11:55AM 38.5621 -76.7287 142° Southeast  Level FlightAware Approximate
11:55AM 38.9667 -77.0667 108° East 262 302 9,200  Level Potomac TRACON
11:56AM 38.4716 -76.7043 171° South  Level FlightAware Approximate
11:56AM 38.9333 -76.9833 117° Southeast 282 325 11,100  Level Potomac TRACON
11:57AM 38.3774 -76.7000 180° South  Level FlightAware Approximate
11:57AM 38.8667 -76.9333 150° Southeast 358 412 12,000  Level Potomac TRACON
11:58AM 38.7833 -76.8667 148° Southeast 358 412 13,600 1,440 Climbing Potomac TRACON
11:58AM 38.7194 -76.8342 158° South 371 427 14,500 1,440 Climbing Washington Center
12:00PM 38.6283 -76.7742 153° Southeast 376 433 16,200 1,380 Climbing Washington Center
12:01PM 38.5328 -76.7250 158° South 376 433 17,400 1,080 Climbing Washington Center
12:02PM 38.4244 -76.7100 174° South 376 433 18,400 1,020 Climbing Washington Center
12:02PM 38.3142 -76.6978 175° South 392 451 19,500 1,020 Climbing Washington Center
12:03PM 38.1933 -76.6750 172° South 402 463 20,500 960 Climbing Washington Center
12:05PM 38.0808 -76.6600 174° South 409 471 21,500 1,020 Climbing Washington Center
12:05PM 37.9642 -76.6481 175° South 409 471 22,600 960 Climbing Washington Center
12:07PM 37.8494 -76.6594 184° South 409 471 23,500 1,020 Climbing Washington Center
12:08PM 37.7367 -76.6736 186° South 414 476 24,700 1,140 Climbing Washington Center
12:09PM 37.6239 -76.6878 186° South 414 476 25,800 1,020 Climbing Washington Center
12:09PM 37.5089 -76.7019 186° South 414 476 26,700 1,020 Climbing Washington Center
12:10PM 37.3983 -76.7292 191° South 414 476 27,900 1,140 Climbing Washington Center
12:12PM 37.2936 -76.7719 198° South 404 465 29,100 780 Climbing Washington Center
12:13PM 37.1908 -76.8172 199° South 404 465 29,600 420 Climbing Washington Center
12:13PM 37.0839 -76.8597 198° South 404 465 30,000 180 Climbing Washington Center
12:14PM 36.9772 -76.9047 199° South 404 465 30,000  Level Washington Center
12:16PM 36.8703 -76.9472 198° South 404 465 30,000  Level Washington Center
12:17PM 36.7633 -76.9944 199° South 409 471 30,000  Level Washington Center
12:17PM 36.6836 -77.0397 204° Southwest 409 471 30,000  Level Washington Center
12:19PM 36.5781 -77.1414 218° Southwest 399 459 30,000  Level Washington Center
12:20PM 36.4892 -77.2247 217° Southwest 399 459 30,000  Level Washington Center
12:20PM 36.4025 -77.3081 218° Southwest 399 459 30,000  Level Washington Center
12:21PM 36.3117 -77.3886 216° Southwest 399 459 30,000  Level Washington Center
12:23PM 36.2439 -77.4539 218° Southwest 399 459 30,000  Level Washington Center
12:24PM 36.1486 -77.5444 218° Southwest 394 453 30,000  Level Washington Center
12:24PM 36.0617 -77.6269 217° Southwest 399 459 30,000  Level Washington Center
12:25PM 35.9747 -77.7094 218° Southwest 399 459 30,000  Level Washington Center
12:26PM 35.8836 -77.7814 213° Southwest 399 459 30,000  Level Washington Center
12:28PM 35.7883 -77.8531 211° Southwest 399 459 30,000  Level Washington Center
12:29PM 35.6972 -77.9247 213° Southwest 399 459 30,000  Level Washington Center
12:29PM 35.6039 -77.9986 213° Southwest 399 459 30,000  Level Washington Center
12:31PM 35.5108 -78.0672 211° Southwest 399 459 30,000  Level Washington Center
12:32PM 35.4175 -78.1381 212° Southwest 399 459 30,000 -60 Level Washington Center
12:32PM 35.3242 -78.2142 214° Southwest 399 459 29,900 -600 Descending Washington Center
12:33PM 35.2264 -78.2872 211° Southwest 404 465 28,900 -960 Descending Washington Center
12:34PM 35.1267 -78.3653 213° Southwest 420 483 28,000 -480 Descending Washington Center
12:36PM 35.0267 -78.4456 213° Southwest 425 489 28,000  Level Washington Center
12:36PM 34.9289 -78.5206 212° Southwest 425 489 28,000  Level Washington Center
12:38PM 34.8289 -78.5953 212° Southwest 420 483 28,000 -240 Level Washington Center
12:39PM 34.6500 -78.7283 211° Southwest 420 483 27,500 -600 Descending Jacksonville Center
12:40PM 34.5506 -78.8064 213° Southwest 420 483 26,500 -780 Descending Jacksonville Center
12:41PM 34.4611 -78.8811 215° Southwest 426 490 26,000 -480 Descending Jacksonville Center
12:42PM 34.3633 -78.9536 211° Southwest 426 490 25,600 -780 Descending Jacksonville Center
12:43PM 34.2633 -79.0258 211° Southwest 421 484 24,500 -900 Descending Jacksonville Center
12:44PM 34.1564 -79.0758 201° Southwest 416 479 23,900 -300 Descending Jacksonville Center
12:45PM 34.0556 -79.1203 200° South 409 471 24,000  Climbing Jacksonville Center
12:46PM 33.9564 -79.1622 199° South 397 457 24,000 -60 Level Jacksonville Center
12:47PM 33.8578 -79.2089 201° Southwest 392 451 23,900 -1,200 Descending Jacksonville Center
12:48PM 33.7589 -79.2581 202° Southwest 387 445 21,600 -2,520 Descending Jacksonville Center
12:49PM 33.6692 -79.3267 212° Southwest 366 421 18,900 -2,460 Descending Jacksonville Center
12:50PM 33.5875 -79.3897 213° Southwest 361 415 16,700 -2,160 Descending Jacksonville Center
12:51PM 33.5056 -79.4478 211° Southwest 355 409 14,600 -2,160 Descending Jacksonville Center
12:52PM 33.4258 -79.5081 212° Southwest 349 402 12,400 -1,860 Descending Jacksonville Center
12:53PM 33.3522 -79.5681 214° Southwest 344 396 10,900 -1,140 Descending Jacksonville Center
12:54PM 33.2783 -79.6156 208° Southwest 325 374 10,200 -900 Descending Jacksonville Center
12:55PM 33.2064 -79.6578 206° Southwest 303 349 9,200 -1,020 Descending Jacksonville Center
12:56PM 33.1303 -79.7028 206° Southwest 303 349 8,200 -1,020 Descending Jacksonville Center
12:57PM 33.0583 -79.7475 208° Southwest 303 349 7,200 -1,020 Descending Jacksonville Center
12:58PM 32.9886 -79.7944 209° Southwest 298 343 6,200 -900 Descending Jacksonville Center
12:59PM 32.9292 -79.8336 209° Southwest 293 337 5,400 -660 Descending Jacksonville Center
01:00PM 32.8633 -79.8756 208° Southwest 286 329 4,900 -540 Descending Jacksonville Center
01:02PM 32.7774 -79.9893 220° Southwest  Level FlightAware Approximate
01:09PM 32.8833 -80.0333 348° North  Level FlightAware Approximate
01:10PM 32.8986 -80.0405 348° North  Level Estimated
01:11PM 32.8986 -80.0405 348° North  Level Estimated
01:12PM 32.8986 -80.0405 348° North  Level Estimated
01:13PM 32.8986 -80.0405 348° North  Level Estimated